sensor_id;sensor_type;location;lat;lon;timestamp;pressure;altitude;pressure_sealevel;temperature
65316;BMP280;51920;53.952;10.292;2022-12-18T00:02:04;102388.16;;;-4.96
65316;BMP280;51920;53.952;10.292;2022-12-18T00:04:30;102390.63;;;-5.01
65316;BMP280;51920;53.952;10.292;2022-12-18T00:06:55;102390.38;;;-5.12
65316;BMP280;51920;53.952;10.292;2022-12-18T00:09:21;102392.69;;;-5.15
65316;BMP280;51920;53.952;10.292;2022-12-18T00:11:46;102389.34;;;-5.11
65316;BMP280;51920;53.952;10.292;2022-12-18T00:14:12;102390.22;;;-5.17
65316;BMP280;51920;53.952;10.292;2022-12-18T00:16:38;102389.50;;;-5.24
65316;BMP280;51920;53.952;10.292;2022-12-18T00:19:04;102385.38;;;-5.20
65316;BMP280;51920;53.952;10.292;2022-12-18T00:21:31;102394.31;;;-5.21
65316;BMP280;51920;53.952;10.292;2022-12-18T00:23:58;102401.09;;;-5.25
65316;BMP280;51920;53.952;10.292;2022-12-18T00:26:27;102397.28;;;-5.29
65316;BMP280;51920;53.952;10.292;2022-12-18T00:29:04;102403.00;;;-5.32
65316;BMP280;51920;53.952;10.292;2022-12-18T00:31:30;102410.75;;;-5.37
65316;BMP280;51920;53.952;10.292;2022-12-18T00:33:57;102420.19;;;-5.42
65316;BMP280;51920;53.952;10.292;2022-12-18T00:36:27;102403.78;;;-5.50
65316;BMP280;51920;53.952;10.292;2022-12-18T00:38:54;102420.66;;;-5.51
65316;BMP280;51920;53.952;10.292;2022-12-18T00:41:20;102424.03;;;-5.44
65316;BMP280;51920;53.952;10.292;2022-12-18T00:44:06;102412.31;;;-5.48
65316;BMP280;51920;53.952;10.292;2022-12-18T00:46:32;102417.59;;;-5.48
65316;BMP280;51920;53.952;10.292;2022-12-18T00:48:58;102419.44;;;-5.49
65316;BMP280;51920;53.952;10.292;2022-12-18T00:51:25;102408.28;;;-5.32
65316;BMP280;51920;53.952;10.292;2022-12-18T00:53:52;102405.25;;;-5.36
65316;BMP280;51920;53.952;10.292;2022-12-18T00:56:17;102408.66;;;-5.29
65316;BMP280;51920;53.952;10.292;2022-12-18T00:58:43;102405.91;;;-5.41
65316;BMP280;51920;53.952;10.292;2022-12-18T01:01:08;102400.94;;;-5.30
65316;BMP280;51920;53.952;10.292;2022-12-18T01:03:34;102403.00;;;-5.32
65316;BMP280;51920;53.952;10.292;2022-12-18T01:06:08;102398.38;;;-5.18
65316;BMP280;51920;53.952;10.292;2022-12-18T01:08:34;102405.44;;;-5.31
65316;BMP280;51920;53.952;10.292;2022-12-18T01:11:01;102409.75;;;-5.36
65316;BMP280;51920;53.952;10.292;2022-12-18T01:13:26;102407.91;;;-5.36
65316;BMP280;51920;53.952;10.292;2022-12-18T01:15:52;102413.41;;;-5.37
65316;BMP280;51920;53.952;10.292;2022-12-18T01:18:17;102418.88;;;-5.32
65316;BMP280;51920;53.952;10.292;2022-12-18T01:20:43;102418.53;;;-5.43
65316;BMP280;51920;53.952;10.292;2022-12-18T01:23:08;102423.59;;;-5.41
65316;BMP280;51920;53.952;10.292;2022-12-18T01:25:36;102408.44;;;-5.46
65316;BMP280;51920;53.952;10.292;2022-12-18T01:28:02;102416.38;;;-5.46
65316;BMP280;51920;53.952;10.292;2022-12-18T01:30:27;102405.63;;;-5.51
65316;BMP280;51920;53.952;10.292;2022-12-18T01:32:53;102392.28;;;-5.37
65316;BMP280;51920;53.952;10.292;2022-12-18T01:35:18;102386.53;;;-5.16
65316;BMP280;51920;53.952;10.292;2022-12-18T01:37:45;102391.09;;;-5.23
65316;BMP280;51920;53.952;10.292;2022-12-18T01:40:11;102403.06;;;-5.20
65316;BMP280;51920;53.952;10.292;2022-12-18T01:42:37;102402.25;;;-5.21
65316;BMP280;51920;53.952;10.292;2022-12-18T01:47:52;102412.59;;;-5.19
65316;BMP280;51920;53.952;10.292;2022-12-18T01:50:23;102414.31;;;-5.25
65316;BMP280;51920;53.952;10.292;2022-12-18T01:52:52;102426.19;;;-5.34
65316;BMP280;51920;53.952;10.292;2022-12-18T01:55:20;102431.91;;;-5.37
65316;BMP280;51920;53.952;10.292;2022-12-18T01:57:47;102430.16;;;-5.44
65316;BMP280;51920;53.952;10.292;2022-12-18T02:00:17;102446.84;;;-5.50
65316;BMP280;51920;53.952;10.292;2022-12-18T02:02:44;102441.50;;;-5.62
65316;BMP280;51920;53.952;10.292;2022-12-18T02:05:14;102449.25;;;-5.67
65316;BMP280;51920;53.952;10.292;2022-12-18T02:18:34;102447.25;;;-5.97
65316;BMP280;51920;53.952;10.292;2022-12-18T02:26:30;102462.75;;;-6.07
65316;BMP280;51920;53.952;10.292;2022-12-18T02:29:03;102464.19;;;-6.11
65316;BMP280;51920;53.952;10.292;2022-12-18T02:31:36;102469.50;;;-6.18
65316;BMP280;51920;53.952;10.292;2022-12-18T02:34:07;102470.38;;;-6.24
65316;BMP280;51920;53.952;10.292;2022-12-18T02:36:39;102485.16;;;-6.23
65316;BMP280;51920;53.952;10.292;2022-12-18T02:39:07;102471.88;;;-6.41
65316;BMP280;51920;53.952;10.292;2022-12-18T02:41:36;102467.50;;;-6.61
65316;BMP280;51920;53.952;10.292;2022-12-18T02:44:08;102483.97;;;-6.65
65316;BMP280;51920;53.952;10.292;2022-12-18T02:46:48;102477.09;;;-6.73
65316;BMP280;51920;53.952;10.292;2022-12-18T02:49:40;102476.69;;;-6.77
65316;BMP280;51920;53.952;10.292;2022-12-18T02:52:37;102466.56;;;-6.80
65316;BMP280;51920;53.952;10.292;2022-12-18T03:03:51;102471.03;;;-6.94
65316;BMP280;51920;53.952;10.292;2022-12-18T03:08:47;102473.53;;;-7.19
65316;BMP280;51920;53.952;10.292;2022-12-18T03:11:16;102478.41;;;-7.23
65316;BMP280;51920;53.952;10.292;2022-12-18T03:14:02;102473.94;;;-7.22
65316;BMP280;51920;53.952;10.292;2022-12-18T03:16:29;102473.34;;;-7.24
65316;BMP280;51920;53.952;10.292;2022-12-18T03:19:06;102466.44;;;-7.18
65316;BMP280;51920;53.952;10.292;2022-12-18T03:21:37;102473.94;;;-7.02
65316;BMP280;51920;53.952;10.292;2022-12-18T03:24:07;102467.41;;;-6.93
65316;BMP280;51920;53.952;10.292;2022-12-18T03:26:35;102461.91;;;-6.84
65316;BMP280;51920;53.952;10.292;2022-12-18T03:29:09;102449.34;;;-6.82
65316;BMP280;51920;53.952;10.292;2022-12-18T03:31:40;102460.25;;;-6.72
65316;BMP280;51920;53.952;10.292;2022-12-18T03:34:13;102468.16;;;-6.72
65316;BMP280;51920;53.952;10.292;2022-12-18T03:36:44;102458.47;;;-6.78
65316;BMP280;51920;53.952;10.292;2022-12-18T03:39:10;102474.25;;;-6.72
65316;BMP280;51920;53.952;10.292;2022-12-18T03:41:52;102478.69;;;-6.72
65316;BMP280;51920;53.952;10.292;2022-12-18T03:44:45;102475.03;;;-6.71
65316;BMP280;51920;53.952;10.292;2022-12-18T03:47:32;102465.69;;;-6.67
65316;BMP280;51920;53.952;10.292;2022-12-18T03:50:13;102465.25;;;-6.51
65316;BMP280;51920;53.952;10.292;2022-12-18T03:52:59;102468.91;;;-6.58
65316;BMP280;51920;53.952;10.292;2022-12-18T03:55:28;102464.09;;;-6.68
65316;BMP280;51920;53.952;10.292;2022-12-18T03:58:01;102458.22;;;-6.70
65316;BMP280;51920;53.952;10.292;2022-12-18T04:00:37;102470.38;;;-6.69
65316;BMP280;51920;53.952;10.292;2022-12-18T04:03:08;102452.97;;;-6.70
65316;BMP280;51920;53.952;10.292;2022-12-18T04:05:42;102454.38;;;-6.74
65316;BMP280;51920;53.952;10.292;2022-12-18T04:08:09;102441.00;;;-6.73
65316;BMP280;51920;53.952;10.292;2022-12-18T04:10:38;102449.69;;;-6.65
65316;BMP280;51920;53.952;10.292;2022-12-18T04:13:03;102456.38;;;-6.70
65316;BMP280;51920;53.952;10.292;2022-12-18T04:15:29;102450.91;;;-6.68
65316;BMP280;51920;53.952;10.292;2022-12-18T04:17:56;102448.69;;;-6.71
65316;BMP280;51920;53.952;10.292;2022-12-18T04:20:23;102451.91;;;-6.69
65316;BMP280;51920;53.952;10.292;2022-12-18T04:22:49;102452.34;;;-6.72
65316;BMP280;51920;53.952;10.292;2022-12-18T04:25:15;102457.00;;;-6.74
65316;BMP280;51920;53.952;10.292;2022-12-18T04:27:52;102460.84;;;-6.70
65316;BMP280;51920;53.952;10.292;2022-12-18T04:30:18;102454.56;;;-6.69
65316;BMP280;51920;53.952;10.292;2022-12-18T04:32:44;102450.75;;;-6.73
65316;BMP280;51920;53.952;10.292;2022-12-18T04:35:09;102457.97;;;-6.62
65316;BMP280;51920;53.952;10.292;2022-12-18T04:37:39;102464.69;;;-6.66
65316;BMP280;51920;53.952;10.292;2022-12-18T04:40:05;102466.94;;;-6.63
65316;BMP280;51920;53.952;10.292;2022-12-18T04:42:39;102458.53;;;-6.53
65316;BMP280;51920;53.952;10.292;2022-12-18T04:45:05;102466.84;;;-6.49
65316;BMP280;51920;53.952;10.292;2022-12-18T04:47:30;102477.34;;;-6.36
65316;BMP280;51920;53.952;10.292;2022-12-18T04:49:56;102473.56;;;-6.54
65316;BMP280;51920;53.952;10.292;2022-12-18T04:52:21;102478.75;;;-6.40
65316;BMP280;51920;53.952;10.292;2022-12-18T04:54:47;102479.63;;;-6.46
65316;BMP280;51920;53.952;10.292;2022-12-18T04:57:13;102476.97;;;-6.46
65316;BMP280;51920;53.952;10.292;2022-12-18T04:59:39;102492.13;;;-6.35
65316;BMP280;51920;53.952;10.292;2022-12-18T05:02:05;102489.91;;;-6.38
65316;BMP280;51920;53.952;10.292;2022-12-18T05:04:30;102484.38;;;-6.30
65316;BMP280;51920;53.952;10.292;2022-12-18T05:06:56;102492.09;;;-6.28
65316;BMP280;51920;53.952;10.292;2022-12-18T05:09:21;102500.78;;;-6.28
65316;BMP280;51920;53.952;10.292;2022-12-18T05:11:46;102486.00;;;-6.29
65316;BMP280;51920;53.952;10.292;2022-12-18T05:14:12;102502.84;;;-6.23
65316;BMP280;51920;53.952;10.292;2022-12-18T05:16:37;102492.72;;;-6.33
65316;BMP280;51920;53.952;10.292;2022-12-18T05:19:03;102497.66;;;-6.43
65316;BMP280;51920;53.952;10.292;2022-12-18T05:21:28;102504.09;;;-6.33
65316;BMP280;51920;53.952;10.292;2022-12-18T05:23:53;102499.66;;;-6.45
65316;BMP280;51920;53.952;10.292;2022-12-18T05:26:19;102502.25;;;-6.39
65316;BMP280;51920;53.952;10.292;2022-12-18T05:28:45;102503.75;;;-6.56
65316;BMP280;51920;53.952;10.292;2022-12-18T05:31:11;102506.63;;;-6.58
65316;BMP280;51920;53.952;10.292;2022-12-18T05:33:36;102509.09;;;-6.63
65316;BMP280;51920;53.952;10.292;2022-12-18T05:36:05;102510.31;;;-6.65
65316;BMP280;51920;53.952;10.292;2022-12-18T05:38:32;102512.94;;;-6.72
65316;BMP280;51920;53.952;10.292;2022-12-18T05:40:58;102510.75;;;-6.75
65316;BMP280;51920;53.952;10.292;2022-12-18T05:43:25;102512.16;;;-6.73
65316;BMP280;51920;53.952;10.292;2022-12-18T05:45:51;102522.66;;;-6.66
65316;BMP280;51920;53.952;10.292;2022-12-18T05:48:17;102514.56;;;-6.71
65316;BMP280;51920;53.952;10.292;2022-12-18T05:50:44;102514.38;;;-6.63
65316;BMP280;51920;53.952;10.292;2022-12-18T05:53:13;102512.31;;;-6.61
65316;BMP280;51920;53.952;10.292;2022-12-18T05:55:40;102511.66;;;-6.49
65316;BMP280;51920;53.952;10.292;2022-12-18T05:58:08;102495.72;;;-6.68
65316;BMP280;51920;53.952;10.292;2022-12-18T06:00:35;102515.47;;;-6.45
65316;BMP280;51920;53.952;10.292;2022-12-18T06:03:01;102507.03;;;-6.54
65316;BMP280;51920;53.952;10.292;2022-12-18T06:05:27;102510.88;;;-6.50
65316;BMP280;51920;53.952;10.292;2022-12-18T06:07:53;102513.09;;;-6.54
65316;BMP280;51920;53.952;10.292;2022-12-18T06:10:18;102515.13;;;-6.56
65316;BMP280;51920;53.952;10.292;2022-12-18T06:12:44;102520.41;;;-6.56
65316;BMP280;51920;53.952;10.292;2022-12-18T06:15:10;102515.97;;;-6.62
65316;BMP280;51920;53.952;10.292;2022-12-18T06:17:35;102517.38;;;-6.59
65316;BMP280;51920;53.952;10.292;2022-12-18T06:20:01;102517.97;;;-6.57
65316;BMP280;51920;53.952;10.292;2022-12-18T06:22:27;102513.53;;;-6.63
65316;BMP280;51920;53.952;10.292;2022-12-18T06:24:52;102515.56;;;-6.59
65316;BMP280;51920;53.952;10.292;2022-12-18T06:27:18;102519.00;;;-6.65
65316;BMP280;51920;53.952;10.292;2022-12-18T06:29:43;102516.38;;;-6.65
65316;BMP280;51920;53.952;10.292;2022-12-18T06:32:09;102527.34;;;-6.68
65316;BMP280;51920;53.952;10.292;2022-12-18T06:34:37;102534.88;;;-6.78
65316;BMP280;51920;53.952;10.292;2022-12-18T06:37:02;102527.34;;;-6.81
65316;BMP280;51920;53.952;10.292;2022-12-18T06:39:28;102535.25;;;-6.81
65316;BMP280;51920;53.952;10.292;2022-12-18T06:41:53;102535.47;;;-6.76
65316;BMP280;51920;53.952;10.292;2022-12-18T06:44:19;102529.00;;;-6.80
65316;BMP280;51920;53.952;10.292;2022-12-18T06:46:44;102532.38;;;-6.60
65316;BMP280;51920;53.952;10.292;2022-12-18T06:49:10;102527.53;;;-6.63
65316;BMP280;51920;53.952;10.292;2022-12-18T06:51:36;102538.09;;;-6.63
65316;BMP280;51920;53.952;10.292;2022-12-18T06:54:02;102535.44;;;-6.70
65316;BMP280;51920;53.952;10.292;2022-12-18T06:56:28;102530.97;;;-6.69
65316;BMP280;51920;53.952;10.292;2022-12-18T06:58:53;102542.72;;;-6.65
65316;BMP280;51920;53.952;10.292;2022-12-18T07:01:19;102546.38;;;-6.66
65316;BMP280;51920;53.952;10.292;2022-12-18T07:03:44;102545.00;;;-6.75
65316;BMP280;51920;53.952;10.292;2022-12-18T07:06:19;102546.81;;;-6.76
65316;BMP280;51920;53.952;10.292;2022-12-18T07:08:46;102543.97;;;-6.81
65316;BMP280;51920;53.952;10.292;2022-12-18T07:11:11;102549.47;;;-6.82
65316;BMP280;51920;53.952;10.292;2022-12-18T07:13:37;102544.03;;;-6.88
65316;BMP280;51920;53.952;10.292;2022-12-18T07:16:25;102549.25;;;-6.74
65316;BMP280;51920;53.952;10.292;2022-12-18T07:18:49;102546.84;;;-6.89
65316;BMP280;51920;53.952;10.292;2022-12-18T07:21:17;102552.31;;;-6.84
65316;BMP280;51920;53.952;10.292;2022-12-18T07:23:43;102556.75;;;-6.84
65316;BMP280;51920;53.952;10.292;2022-12-18T07:26:12;102565.09;;;-6.88
65316;BMP280;51920;53.952;10.292;2022-12-18T07:28:39;102565.50;;;-6.91
65316;BMP280;51920;53.952;10.292;2022-12-18T07:31:07;102568.50;;;-6.80
65316;BMP280;51920;53.952;10.292;2022-12-18T07:33:33;102572.78;;;-6.86
65316;BMP280;51920;53.952;10.292;2022-12-18T07:36:00;102571.97;;;-6.87
65316;BMP280;51920;53.952;10.292;2022-12-18T07:38:26;102561.06;;;-6.97
65316;BMP280;51920;53.952;10.292;2022-12-18T07:40:51;102581.28;;;-6.97
65316;BMP280;51920;53.952;10.292;2022-12-18T07:43:17;102582.13;;;-6.97
65316;BMP280;51920;53.952;10.292;2022-12-18T07:45:43;102586.78;;;-6.99
65316;BMP280;51920;53.952;10.292;2022-12-18T07:48:09;102582.13;;;-7.03
65316;BMP280;51920;53.952;10.292;2022-12-18T07:50:34;102574.81;;;-7.08
65316;BMP280;51920;53.952;10.292;2022-12-18T07:52:59;102592.66;;;-6.97
65316;BMP280;51920;53.952;10.292;2022-12-18T07:55:29;102598.94;;;-6.98
65316;BMP280;51920;53.952;10.292;2022-12-18T07:57:55;102591.44;;;-7.01
65316;BMP280;51920;53.952;10.292;2022-12-18T08:00:20;102595.72;;;-7.00
65316;BMP280;51920;53.952;10.292;2022-12-18T08:02:46;102601.56;;;-6.98
65316;BMP280;51920;53.952;10.292;2022-12-18T08:05:11;102604.81;;;-6.96
65316;BMP280;51920;53.952;10.292;2022-12-18T08:07:37;102604.38;;;-6.79
65316;BMP280;51920;53.952;10.292;2022-12-18T08:10:03;102601.94;;;-6.74
65316;BMP280;51920;53.952;10.292;2022-12-18T08:12:28;102594.69;;;-6.85
65316;BMP280;51920;53.952;10.292;2022-12-18T08:14:54;102601.97;;;-6.88
65316;BMP280;51920;53.952;10.292;2022-12-18T08:17:19;102601.56;;;-6.78
65316;BMP280;51920;53.952;10.292;2022-12-18T08:19:45;102598.28;;;-6.80
65316;BMP280;51920;53.952;10.292;2022-12-18T08:22:10;102610.44;;;-6.72
65316;BMP280;51920;53.952;10.292;2022-12-18T08:24:36;102605.81;;;-6.70
65316;BMP280;51920;53.952;10.292;2022-12-18T08:27:01;102598.28;;;-6.60
65316;BMP280;51920;53.952;10.292;2022-12-18T08:29:28;102602.72;;;-6.54
65316;BMP280;51920;53.952;10.292;2022-12-18T08:31:55;102588.50;;;-6.46
65316;BMP280;51920;53.952;10.292;2022-12-18T08:34:21;102591.28;;;-6.27
65316;BMP280;51920;53.952;10.292;2022-12-18T08:36:46;102578.03;;;-6.14
65316;BMP280;51920;53.952;10.292;2022-12-18T08:39:12;102595.75;;;-5.83
65316;BMP280;51920;53.952;10.292;2022-12-18T08:41:37;102595.75;;;-5.51
65316;BMP280;51920;53.952;10.292;2022-12-18T08:44:03;102585.03;;;-5.31
65316;BMP280;51920;53.952;10.292;2022-12-18T08:46:47;102588.66;;;-5.07
65316;BMP280;51920;53.952;10.292;2022-12-18T08:49:12;102585.84;;;-4.87
65316;BMP280;51920;53.952;10.292;2022-12-18T08:51:38;102585.16;;;-4.57
65316;BMP280;51920;53.952;10.292;2022-12-18T08:54:05;102579.06;;;-4.27
65316;BMP280;51920;53.952;10.292;2022-12-18T08:56:30;102598.63;;;-4.28
65316;BMP280;51920;53.952;10.292;2022-12-18T08:58:56;102601.41;;;-4.23
65316;BMP280;51920;53.952;10.292;2022-12-18T09:01:23;102603.50;;;-3.95
65316;BMP280;51920;53.952;10.292;2022-12-18T09:03:49;102594.56;;;-3.70
65316;BMP280;51920;53.952;10.292;2022-12-18T09:06:17;102598.50;;;-3.61
65316;BMP280;51920;53.952;10.292;2022-12-18T09:08:44;102590.34;;;-3.47
65316;BMP280;51920;53.952;10.292;2022-12-18T09:11:15;102603.03;;;-3.26
65316;BMP280;51920;53.952;10.292;2022-12-18T09:13:43;102612.81;;;-3.03
65316;BMP280;51920;53.952;10.292;2022-12-18T09:16:09;102612.94;;;-2.97
65316;BMP280;51920;53.952;10.292;2022-12-18T09:18:35;102616.63;;;-2.87
65316;BMP280;51920;53.952;10.292;2022-12-18T09:21:07;102605.09;;;-2.80
65316;BMP280;51920;53.952;10.292;2022-12-18T09:23:32;102601.94;;;-2.37
65316;BMP280;51920;53.952;10.292;2022-12-18T09:25:58;102598.38;;;-2.31
65316;BMP280;51920;53.952;10.292;2022-12-18T09:28:24;102614.75;;;-2.22
65316;BMP280;51920;53.952;10.292;2022-12-18T09:30:50;102607.81;;;-2.23
65316;BMP280;51920;53.952;10.292;2022-12-18T09:33:16;102608.19;;;-2.02
65316;BMP280;51920;53.952;10.292;2022-12-18T09:35:43;102618.19;;;-1.76
65316;BMP280;51920;53.952;10.292;2022-12-18T09:38:15;102625.84;;;-1.62
65316;BMP280;51920;53.952;10.292;2022-12-18T09:40:52;102624.56;;;-1.77
65316;BMP280;51920;53.952;10.292;2022-12-18T09:43:40;102612.84;;;-1.93
65316;BMP280;51920;53.952;10.292;2022-12-18T09:46:14;102616.56;;;-1.77
65316;BMP280;51920;53.952;10.292;2022-12-18T09:48:42;102615.03;;;-1.73
65316;BMP280;51920;53.952;10.292;2022-12-18T09:51:19;102610.00;;;-1.74
65316;BMP280;51920;53.952;10.292;2022-12-18T09:53:56;102620.38;;;-1.56
65316;BMP280;51920;53.952;10.292;2022-12-18T09:56:23;102607.50;;;-1.81
65316;BMP280;51920;53.952;10.292;2022-12-18T09:58:58;102615.22;;;-1.62
65316;BMP280;51920;53.952;10.292;2022-12-18T10:01:25;102611.59;;;-1.73
65316;BMP280;51920;53.952;10.292;2022-12-18T10:03:52;102603.84;;;-1.58
65316;BMP280;51920;53.952;10.292;2022-12-18T10:06:35;102610.00;;;-1.74
65316;BMP280;51920;53.952;10.292;2022-12-18T10:17:00;102606.28;;;-2.48
65316;BMP280;51920;53.952;10.292;2022-12-18T10:19:48;102616.34;;;-2.21
65316;BMP280;51920;53.952;10.292;2022-12-18T10:27:39;102613.75;;;-2.44
65316;BMP280;51920;53.952;10.292;2022-12-18T10:30:14;102615.66;;;-2.57
65316;BMP280;51920;53.952;10.292;2022-12-18T10:32:40;102620.06;;;-2.62
65316;BMP280;51920;53.952;10.292;2022-12-18T10:35:15;102613.22;;;-2.70
65316;BMP280;51920;53.952;10.292;2022-12-18T10:40:30;102630.53;;;-1.98
65316;BMP280;51920;53.952;10.292;2022-12-18T10:48:27;102631.22;;;-1.57
65316;BMP280;51920;53.952;10.292;2022-12-18T10:50:53;102630.41;;;-1.41
65316;BMP280;51920;53.952;10.292;2022-12-18T10:53:23;102617.69;;;-1.39
65316;BMP280;51920;53.952;10.292;2022-12-18T10:55:50;102609.50;;;-1.71
65316;BMP280;51920;53.952;10.292;2022-12-18T10:58:30;102616.97;;;-1.85
65316;BMP280;51920;53.952;10.292;2022-12-18T11:01:12;102606.25;;;-1.90
65316;BMP280;51920;53.952;10.292;2022-12-18T11:03:46;102611.06;;;-2.04
65316;BMP280;51920;53.952;10.292;2022-12-18T11:06:24;102605.25;;;-2.18
65316;BMP280;51920;53.952;10.292;2022-12-18T11:09:19;102604.78;;;-2.15
65316;BMP280;51920;53.952;10.292;2022-12-18T11:11:49;102604.59;;;-2.25
65316;BMP280;51920;53.952;10.292;2022-12-18T11:14:29;102613.44;;;-2.19
65316;BMP280;51920;53.952;10.292;2022-12-18T11:16:57;102618.75;;;-2.19
65316;BMP280;51920;53.952;10.292;2022-12-18T11:19:37;102626.75;;;-2.02
65316;BMP280;51920;53.952;10.292;2022-12-18T11:22:25;102621.19;;;-2.01
65316;BMP280;51920;53.952;10.292;2022-12-18T11:25:02;102599.16;;;-2.01
65316;BMP280;51920;53.952;10.292;2022-12-18T11:27:28;102572.28;;;-2.22
65316;BMP280;51920;53.952;10.292;2022-12-18T11:30:08;102578.03;;;-2.25
65316;BMP280;51920;53.952;10.292;2022-12-18T11:32:37;102580.38;;;-2.40
65316;BMP280;51920;53.952;10.292;2022-12-18T11:38:17;102586.22;;;-2.55
65316;BMP280;51920;53.952;10.292;2022-12-18T11:40:47;102596.84;;;-2.67
65316;BMP280;51920;53.952;10.292;2022-12-18T11:43:28;102588.34;;;-2.81
65316;BMP280;51920;53.952;10.292;2022-12-18T11:46:00;102599.56;;;-2.79
65316;BMP280;51920;53.952;10.292;2022-12-18T11:50:57;102596.31;;;-2.81
65316;BMP280;51920;53.952;10.292;2022-12-18T11:53:24;102591.53;;;-2.67
65316;BMP280;51920;53.952;10.292;2022-12-18T11:56:01;102592.22;;;-2.60
65316;BMP280;51920;53.952;10.292;2022-12-18T12:01:22;102590.31;;;-2.76
65316;BMP280;51920;53.952;10.292;2022-12-18T12:04:19;102592.72;;;-2.63
65316;BMP280;51920;53.952;10.292;2022-12-18T12:20:15;102565.75;;;-2.84
65316;BMP280;51920;53.952;10.292;2022-12-18T12:22:49;102569.94;;;-2.88
65316;BMP280;51920;53.952;10.292;2022-12-18T12:25:33;102567.63;;;-2.84
65316;BMP280;51920;53.952;10.292;2022-12-18T12:31:26;102551.31;;;-2.76
65316;BMP280;51920;53.952;10.292;2022-12-18T12:34:15;102531.97;;;-2.76
65316;BMP280;51920;53.952;10.292;2022-12-18T12:39:18;102528.22;;;-2.92
65316;BMP280;51920;53.952;10.292;2022-12-18T12:41:47;102524.84;;;-2.99
65316;BMP280;51920;53.952;10.292;2022-12-18T12:44:38;102532.72;;;-3.05
65316;BMP280;51920;53.952;10.292;2022-12-18T12:47:13;102523.38;;;-3.07
65316;BMP280;51920;53.952;10.292;2022-12-18T12:49:40;102528.19;;;-3.04
65316;BMP280;51920;53.952;10.292;2022-12-18T12:52:15;102529.50;;;-3.18
65316;BMP280;51920;53.952;10.292;2022-12-18T12:54:42;102500.25;;;-3.35
65316;BMP280;51920;53.952;10.292;2022-12-18T12:57:30;102518.59;;;-3.34
65316;BMP280;51920;53.952;10.292;2022-12-18T13:00:09;102514.09;;;-3.33
65316;BMP280;51920;53.952;10.292;2022-12-18T13:06:00;102497.03;;;-3.37
65316;BMP280;51920;53.952;10.292;2022-12-18T13:08:34;102475.94;;;-3.32
65316;BMP280;51920;53.952;10.292;2022-12-18T13:11:35;102489.56;;;-3.41
65316;BMP280;51920;53.952;10.292;2022-12-18T13:14:39;102478.41;;;-3.43
65316;BMP280;51920;53.952;10.292;2022-12-18T13:19:51;102463.06;;;-3.52
65316;BMP280;51920;53.952;10.292;2022-12-18T13:22:23;102459.50;;;-3.58
65316;BMP280;51920;53.952;10.292;2022-12-18T13:43:50;102487.84;;;-3.70
65316;BMP280;51920;53.952;10.292;2022-12-18T13:46:24;102486.47;;;-3.73
65316;BMP280;51920;53.952;10.292;2022-12-18T13:51:42;102476.78;;;-3.67
65316;BMP280;51920;53.952;10.292;2022-12-18T13:56:55;102473.91;;;-3.66
65316;BMP280;51920;53.952;10.292;2022-12-18T13:59:23;102480.34;;;-3.62
65316;BMP280;51920;53.952;10.292;2022-12-18T14:01:58;102471.25;;;-3.78
65316;BMP280;51920;53.952;10.292;2022-12-18T14:04:29;102486.31;;;-3.78
65316;BMP280;51920;53.952;10.292;2022-12-18T14:07:02;102486.22;;;-3.83
65316;BMP280;51920;53.952;10.292;2022-12-18T14:09:31;102483.91;;;-3.80
65316;BMP280;51920;53.952;10.292;2022-12-18T14:11:59;102491.38;;;-3.88
65316;BMP280;51920;53.952;10.292;2022-12-18T14:14:45;102502.41;;;-3.91
65316;BMP280;51920;53.952;10.292;2022-12-18T14:17:12;102496.56;;;-3.93
65316;BMP280;51920;53.952;10.292;2022-12-18T14:19:47;102495.97;;;-3.96
65316;BMP280;51920;53.952;10.292;2022-12-18T14:22:19;102487.09;;;-4.01
65316;BMP280;51920;53.952;10.292;2022-12-18T14:24:47;102469.41;;;-3.89
65316;BMP280;51920;53.952;10.292;2022-12-18T14:27:24;102471.72;;;-3.92
65316;BMP280;51920;53.952;10.292;2022-12-18T14:29:50;102469.50;;;-3.96
65316;BMP280;51920;53.952;10.292;2022-12-18T14:32:19;102473.41;;;-3.98
65316;BMP280;51920;53.952;10.292;2022-12-18T14:34:52;102473.78;;;-3.95
65316;BMP280;51920;53.952;10.292;2022-12-18T14:37:24;102470.84;;;-4.17
65316;BMP280;51920;53.952;10.292;2022-12-18T14:39:57;102475.81;;;-4.08
65316;BMP280;51920;53.952;10.292;2022-12-18T14:42:24;102467.97;;;-4.15
65316;BMP280;51920;53.952;10.292;2022-12-18T14:47:56;102464.06;;;-4.13
65316;BMP280;51920;53.952;10.292;2022-12-18T14:50:21;102455.41;;;-4.32
65316;BMP280;51920;53.952;10.292;2022-12-18T14:52:46;102465.63;;;-4.35
65316;BMP280;51920;53.952;10.292;2022-12-18T14:55:19;102469.22;;;-4.29
65316;BMP280;51920;53.952;10.292;2022-12-18T14:57:49;102450.13;;;-4.32
65316;BMP280;51920;53.952;10.292;2022-12-18T15:00:18;102452.44;;;-4.11
65316;BMP280;51920;53.952;10.292;2022-12-18T15:02:50;102452.44;;;-4.11
65316;BMP280;51920;53.952;10.292;2022-12-18T15:05:20;102451.25;;;-4.27
65316;BMP280;51920;53.952;10.292;2022-12-18T15:07:50;102437.72;;;-4.19
65316;BMP280;51920;53.952;10.292;2022-12-18T15:10:17;102432.44;;;-4.19
65316;BMP280;51920;53.952;10.292;2022-12-18T15:20:39;102428.38;;;-4.22
65316;BMP280;51920;53.952;10.292;2022-12-18T15:23:15;102433.81;;;-4.17
65316;BMP280;51920;53.952;10.292;2022-12-18T15:25:41;102429.78;;;-4.19
65316;BMP280;51920;53.952;10.292;2022-12-18T15:28:18;102424.25;;;-4.18
65316;BMP280;51920;53.952;10.292;2022-12-18T15:33:29;102411.22;;;-4.31
65316;BMP280;51920;53.952;10.292;2022-12-18T15:36:12;102405.59;;;-4.35
65316;BMP280;51920;53.952;10.292;2022-12-18T15:38:38;102399.28;;;-4.34
65316;BMP280;51920;53.952;10.292;2022-12-18T15:41:03;102406.97;;;-4.32
65316;BMP280;51920;53.952;10.292;2022-12-18T15:43:29;102410.31;;;-4.37
65316;BMP280;51920;53.952;10.292;2022-12-18T15:46:05;102413.66;;;-4.29
65316;BMP280;51920;53.952;10.292;2022-12-18T15:48:33;102397.19;;;-4.32
65316;BMP280;51920;53.952;10.292;2022-12-18T15:51:01;102401.09;;;-4.22
65316;BMP280;51920;53.952;10.292;2022-12-18T15:53:32;102391.22;;;-4.39
65316;BMP280;51920;53.952;10.292;2022-12-18T15:55:58;102387.53;;;-4.38
65316;BMP280;51920;53.952;10.292;2022-12-18T15:58:42;102394.56;;;-4.32
65316;BMP280;51920;53.952;10.292;2022-12-18T16:01:09;102395.13;;;-4.29
65316;BMP280;51920;53.952;10.292;2022-12-18T16:03:36;102388.47;;;-4.20